Boardman, Oregon
Current Conditions -  °F | °C
As of 10:53 AM on Sunday 23 Nov 2014 (Local Time) from KHRI Reporting Station
Few Clouds Few Clouds  
Wind Chill: 55°   Ceiling: Unl
Heat Index: 55°   Visibility: 10mi
Dew Point: 33°   Wind: 21mph
Humidity: 43%   Direction: 210°SSW
Pressure: 30.17"   Gusts: 28mph
Location:  45.84°N, 119.7°W
Report Text: KHRI 231853Z AUTO 21018G24KT 10SM FEW065 13/01 A3017 RMK AO2 PK WND 19027/1806 SLP217 T01280006
Loading
Personal Weather Stations






























Interactive Weather Map New forecast layout! Learn more

10-Day Weather Forecast

Advertisements
Track Severe Weather on mobile